createdAt,value
2023-05-10T00:01:08.572Z,101052.63
2023-05-10T00:06:10.148Z,101048.00
2023-05-10T00:11:11.688Z,101046.80
2023-05-10T00:16:14.180Z,101040.12
2023-05-10T00:21:16.141Z,101045.41
2023-05-10T00:26:17.909Z,101037.20
2023-05-10T00:31:19.469Z,101028.63
2023-05-10T00:36:21.858Z,101029.50
2023-05-10T00:41:23.852Z,101032.73
2023-05-10T00:46:26.864Z,101021.95
2023-05-10T00:51:28.841Z,101023.98
2023-05-10T00:56:31.031Z,101019.70
2023-05-10T01:01:33.169Z,101021.38
2023-05-10T01:06:34.751Z,101017.93
2023-05-10T01:11:39.342Z,101011.25
2023-05-10T01:16:43.218Z,101011.23
2023-05-10T01:21:50.719Z,101007.66
2023-05-10T01:27:18.565Z,101004.73
2023-05-10T01:32:38.759Z,101009.00
2023-05-10T01:37:52.475Z,101010.02
2023-05-10T01:43:03.606Z,101007.44
2023-05-10T01:48:09.916Z,101008.13
2023-05-10T01:53:14.142Z,101004.34
2023-05-10T01:58:21.278Z,100999.70
2023-05-10T02:03:25.912Z,100994.05
2023-05-10T02:08:27.786Z,100990.80
2023-05-10T02:13:32.727Z,100988.91
2023-05-10T02:18:37.730Z,100990.61
2023-05-10T02:23:39.982Z,100984.96
2023-05-10T02:28:43.352Z,100984.09
2023-05-10T02:33:47.055Z,100987.14
2023-05-10T02:38:51.428Z,100981.48
2023-05-10T02:43:57.437Z,100984.20
2023-05-10T02:48:59.136Z,100986.08
2023-05-10T02:54:13.117Z,100988.48
2023-05-10T02:59:15.049Z,100990.85
2023-05-10T03:04:16.614Z,100988.29
2023-05-10T03:09:18.182Z,100994.25
2023-05-10T03:14:57.315Z,100990.17
2023-05-10T03:20:10.966Z,100990.71
2023-05-10T03:25:14.545Z,100990.48
2023-05-10T03:30:23.723Z,100986.26
2023-05-10T03:35:25.267Z,100986.20
2023-05-10T03:40:29.901Z,100983.31
2023-05-10T03:45:31.904Z,100977.27
2023-05-10T03:50:33.409Z,100982.27
2023-05-10T03:55:37.161Z,100984.27
2023-05-10T04:00:50.731Z,100980.20
2023-05-10T04:06:01.071Z,100977.40
2023-05-10T04:11:09.964Z,100977.02
2023-05-10T04:16:11.484Z,100977.42
2023-05-10T04:21:14.635Z,100982.92
2023-05-10T04:26:16.252Z,100984.96
2023-05-10T04:31:18.315Z,100984.27
2023-05-10T04:36:19.957Z,100986.80
2023-05-10T04:41:21.717Z,100989.31
2023-05-10T04:46:23.456Z,100991.84
2023-05-10T04:51:25.071Z,100992.11
2023-05-10T04:56:26.569Z,100990.84
2023-05-10T05:01:28.185Z,100989.02
2023-05-10T05:06:29.882Z,100991.49
2023-05-10T05:11:31.355Z,100994.48
2023-05-10T05:16:33.462Z,100997.95
2023-05-10T05:21:35.068Z,100996.94
2023-05-10T05:26:37.605Z,100997.99
2023-05-10T05:31:39.161Z,100997.67
2023-05-10T05:36:40.853Z,100994.42
2023-05-10T05:41:42.409Z,100995.33
2023-05-10T05:46:43.891Z,100991.77
2023-05-10T05:51:46.055Z,100991.91
2023-05-10T05:56:47.571Z,100989.29
2023-05-10T06:01:49.618Z,100989.09
2023-05-10T06:06:51.189Z,100992.24
2023-05-10T06:11:52.715Z,100997.25
2023-05-10T06:16:54.218Z,100988.61
2023-05-10T06:21:55.873Z,100987.20
2023-05-10T06:26:57.399Z,100994.69
2023-05-10T06:31:59.602Z,100995.80
2023-05-10T06:37:01.164Z,100994.30
2023-05-10T06:42:04.524Z,100991.70
2023-05-10T06:47:05.972Z,100994.74
2023-05-10T06:52:07.486Z,100994.11
2023-05-10T06:57:19.490Z,100991.58
2023-05-10T07:02:30.515Z,100988.53
2023-05-10T07:07:32.273Z,100982.76
2023-05-10T07:12:34.000Z,100977.02
2023-05-10T07:17:35.841Z,100972.33
2023-05-10T07:22:37.469Z,100969.97
2023-05-10T07:27:39.025Z,100971.60
2023-05-10T07:32:42.813Z,100974.08
2023-05-10T07:37:44.433Z,100969.90
2023-05-10T07:42:45.965Z,100975.41
2023-05-10T07:47:47.583Z,100970.06
2023-05-10T07:52:49.309Z,100973.59
2023-05-10T07:57:50.796Z,100974.45
2023-05-10T08:02:52.801Z,100970.30
2023-05-10T08:07:54.392Z,100962.84
2023-05-10T08:12:55.883Z,100962.27
2023-05-10T08:17:57.452Z,100958.57
2023-05-10T08:22:59.186Z,100956.18
2023-05-10T08:28:00.697Z,100954.86
2023-05-10T08:33:02.251Z,100949.77
2023-05-10T08:38:03.850Z,100950.70
2023-05-10T08:43:13.724Z,100949.61
2023-05-10T08:48:16.331Z,100951.91
2023-05-10T08:53:18.534Z,100950.40
2023-05-10T08:58:20.640Z,100951.10
2023-05-10T09:03:22.171Z,100949.04
2023-05-10T09:08:26.848Z,100945.58
2023-05-10T09:13:29.309Z,100940.14
2023-05-10T09:18:30.882Z,100939.77
2023-05-10T09:23:33.343Z,100935.56
2023-05-10T09:28:51.170Z,100935.92
2023-05-10T09:33:53.150Z,100928.63
2023-05-10T09:38:54.750Z,100927.48
2023-05-10T09:43:57.370Z,100926.90
2023-05-10T09:49:00.211Z,100926.48
2023-05-10T09:54:10.913Z,100923.77
2023-05-10T09:59:13.812Z,100921.91
2023-05-10T10:04:16.384Z,100920.17
2023-05-10T10:09:19.533Z,100916.48
2023-05-10T10:14:22.174Z,100913.84
2023-05-10T10:19:23.678Z,100918.23
2023-05-10T10:24:25.281Z,100912.36
2023-05-10T10:29:46.593Z,100899.13
2023-05-10T10:34:48.563Z,100890.93
2023-05-10T10:39:51.477Z,100884.47
2023-05-10T10:45:12.334Z,100881.98
2023-05-10T10:50:14.100Z,100884.02
2023-05-10T10:55:23.278Z,100879.27
2023-05-10T11:00:29.610Z,100879.39
2023-05-10T11:05:36.475Z,100872.54
2023-05-10T11:10:38.525Z,100868.78
2023-05-10T11:15:40.977Z,100861.63
2023-05-10T11:20:42.784Z,100861.90
2023-05-10T11:25:45.496Z,100860.28
2023-05-10T11:30:53.802Z,100856.05
2023-05-10T11:35:55.413Z,100854.67
2023-05-10T11:40:57.075Z,100854.64
2023-05-10T11:45:58.670Z,100849.65
2023-05-10T11:51:02.985Z,100842.64
2023-05-10T11:56:12.538Z,100845.19
2023-05-10T12:01:14.289Z,100841.63
2023-05-10T12:06:17.125Z,100845.04
2023-05-10T12:11:19.240Z,100839.40
2023-05-10T12:16:25.855Z,100835.74
2023-05-10T12:21:29.376Z,100839.28
2023-05-10T12:26:31.388Z,100831.70
2023-05-10T12:31:33.189Z,100827.77
2023-05-10T12:36:39.631Z,100831.08
2023-05-10T12:41:43.535Z,100826.13
2023-05-10T12:46:45.402Z,100824.80
2023-05-10T12:51:47.078Z,100819.87
2023-05-10T12:56:48.662Z,100814.73
2023-05-10T13:01:50.322Z,100812.61
2023-05-10T13:06:52.148Z,100813.78
2023-05-10T13:11:55.197Z,100807.34
2023-05-10T13:16:57.011Z,100808.63
2023-05-10T13:21:59.205Z,100800.46
2023-05-10T13:27:00.986Z,100805.80
2023-05-10T13:32:02.701Z,100796.20
2023-05-10T13:37:04.200Z,100796.98
2023-05-10T13:42:06.064Z,100798.27
2023-05-10T13:47:07.922Z,100797.19
2023-05-10T13:52:11.082Z,100785.53
2023-05-10T13:57:14.883Z,100790.28
2023-05-10T14:02:16.532Z,100781.14
2023-05-10T14:07:18.888Z,100773.83
2023-05-10T14:12:20.487Z,100776.72
2023-05-10T14:17:23.253Z,100768.19
2023-05-10T14:22:25.095Z,100764.77
2023-05-10T14:27:26.637Z,100761.36
2023-05-10T14:32:28.963Z,100765.44
2023-05-10T14:37:30.592Z,100763.93
2023-05-10T14:42:32.374Z,100761.83
2023-05-10T14:47:34.173Z,100762.83
2023-05-10T14:52:35.989Z,100756.92
2023-05-10T14:57:37.770Z,100760.55
2023-05-10T15:02:39.682Z,100758.71
2023-05-10T15:07:41.683Z,100757.05
2023-05-10T15:12:43.269Z,100752.64
2023-05-10T15:17:45.176Z,100756.77
2023-05-10T15:22:46.737Z,100753.58
2023-05-10T15:27:48.352Z,100750.65
2023-05-10T15:32:50.128Z,100751.78
2023-05-10T15:37:51.791Z,100750.54
2023-05-10T15:42:53.312Z,100740.86
2023-05-10T15:47:55.347Z,100741.73
2023-05-10T15:52:56.911Z,100743.98
2023-05-10T15:57:58.491Z,100742.16
2023-05-10T16:03:00.047Z,100743.05
2023-05-10T16:08:01.836Z,100743.73
2023-05-10T16:13:03.887Z,100741.33
2023-05-10T16:18:05.946Z,100743.40
2023-05-10T16:23:08.006Z,100747.88
2023-05-10T16:28:09.556Z,100746.61
2023-05-10T16:33:11.139Z,100746.56
2023-05-10T16:38:12.994Z,100749.71
2023-05-10T16:43:14.618Z,100749.70
2023-05-10T16:48:16.342Z,100753.58
2023-05-10T16:53:18.368Z,100755.15
2023-05-10T16:58:19.876Z,100754.27
2023-05-10T17:03:21.745Z,100757.44
2023-05-10T17:08:23.539Z,100758.57
2023-05-10T17:13:25.212Z,100759.08
2023-05-10T17:18:27.382Z,100761.08
2023-05-10T17:23:30.427Z,100770.23
2023-05-10T17:28:32.701Z,100770.23
2023-05-10T17:33:34.565Z,100779.05
2023-05-10T17:38:36.729Z,100782.80
2023-05-10T17:43:38.401Z,100789.83
2023-05-10T17:48:40.094Z,100788.34
2023-05-10T17:53:42.296Z,100792.09
2023-05-10T17:58:44.118Z,100796.25
2023-05-10T18:03:47.126Z,100799.94
2023-05-10T18:08:48.741Z,100805.86
2023-05-10T18:13:50.365Z,100804.26
2023-05-10T18:18:51.980Z,100806.77
2023-05-10T18:23:53.942Z,100813.75
2023-05-10T18:28:55.534Z,100814.02
2023-05-10T18:33:57.656Z,100821.63
2023-05-10T18:38:59.829Z,100834.41
2023-05-10T18:44:01.963Z,100839.03
2023-05-10T18:49:04.046Z,100841.23
2023-05-10T18:54:06.416Z,100841.63
2023-05-10T18:59:08.706Z,100845.78
2023-05-10T19:04:10.500Z,100847.98
2023-05-10T19:09:12.652Z,100852.98
2023-05-10T19:14:14.744Z,100861.78
2023-05-10T19:19:20.425Z,100859.91
2023-05-10T19:24:25.002Z,100859.00
2023-05-10T19:29:27.626Z,100858.86
2023-05-10T19:34:30.052Z,100862.42
2023-05-10T19:39:32.577Z,100866.25
2023-05-10T19:44:34.165Z,100872.54
2023-05-10T19:49:36.491Z,100875.71
2023-05-10T19:54:38.474Z,100879.91
2023-05-10T19:59:40.022Z,100880.62
2023-05-10T20:04:41.508Z,100877.55
2023-05-10T20:09:44.144Z,100882.92
2023-05-10T20:14:45.614Z,100883.10
2023-05-10T20:19:47.439Z,100882.22
2023-05-10T20:24:48.944Z,100879.13
2023-05-10T20:29:50.422Z,100880.85
2023-05-10T20:34:51.982Z,100881.49
2023-05-10T20:39:53.983Z,100880.60
2023-05-10T20:44:55.765Z,100884.86
2023-05-10T20:49:57.296Z,100882.90
2023-05-10T20:54:58.831Z,100887.99
2023-05-10T21:00:00.575Z,100892.22
2023-05-10T21:05:02.080Z,100900.63
2023-05-10T21:10:03.770Z,100904.19
2023-05-10T21:15:05.653Z,100909.42
2023-05-10T21:20:08.120Z,100911.95
2023-05-10T21:25:09.988Z,100911.05
2023-05-10T21:30:11.755Z,100913.23
2023-05-10T21:35:13.412Z,100914.17
2023-05-10T21:40:15.185Z,100914.75
2023-05-10T21:45:19.718Z,100917.70
2023-05-10T21:50:21.371Z,100918.27
2023-05-10T21:55:24.129Z,100921.05
2023-05-10T22:00:30.249Z,100922.45
2023-05-10T22:05:32.724Z,100921.81
2023-05-10T22:10:34.710Z,100927.33
2023-05-10T22:15:36.684Z,100925.48
2023-05-10T22:20:38.358Z,100933.77
2023-05-10T22:25:39.937Z,100939.83
2023-05-10T22:30:42.888Z,100938.16
2023-05-10T22:35:44.352Z,100942.69
2023-05-10T22:40:46.192Z,100950.45
2023-05-10T22:45:47.664Z,100948.81
2023-05-10T22:50:49.236Z,100950.05
2023-05-10T22:55:51.514Z,100951.83
2023-05-10T23:00:54.863Z,100953.42
2023-05-10T23:05:56.424Z,100950.89
2023-05-10T23:10:57.955Z,100953.48
2023-05-10T23:16:06.047Z,100959.37
2023-05-10T23:21:07.589Z,100954.27
2023-05-10T23:26:09.470Z,100953.77
2023-05-10T23:31:11.162Z,100956.55
2023-05-10T23:36:12.687Z,100960.18
2023-05-10T23:41:14.201Z,100955.73
2023-05-10T23:46:16.092Z,100952.30
2023-05-10T23:51:17.635Z,100953.38
2023-05-10T23:56:19.190Z,100957.52
